createdAt,value
2023-04-07T00:01:33.498Z,101580.84
2023-04-07T00:04:00.604Z,101583.88
2023-04-07T00:06:27.817Z,101583.88
2023-04-07T00:08:54.634Z,101586.38
2023-04-07T00:11:23.759Z,101594.19
2023-04-07T00:13:50.658Z,101596.97
2023-04-07T00:16:17.964Z,101601.44
2023-04-07T00:18:44.805Z,101594.44
2023-04-07T00:21:11.649Z,101598.31
2023-04-07T00:23:38.510Z,101595.28
2023-04-07T00:26:05.285Z,101595.28
2023-04-07T00:28:32.019Z,101588.00
2023-04-07T00:30:58.868Z,101598.06
2023-04-07T00:33:26.309Z,101594.44
2023-04-07T00:35:54.659Z,101601.94
2023-04-07T00:38:21.559Z,101602.22
2023-04-07T00:40:48.351Z,101599.16
2023-04-07T00:43:15.183Z,101601.94
2023-04-07T00:45:42.144Z,101605.00
2023-04-07T00:48:08.949Z,101596.66
2023-04-07T00:50:35.758Z,101603.31
2023-04-07T00:53:04.835Z,101600.00
2023-04-07T00:55:31.655Z,101610.59
2023-04-07T00:57:58.404Z,101608.31
2023-04-07T01:00:28.325Z,101614.22
2023-04-07T01:02:59.078Z,101616.66
2023-04-07T01:05:33.241Z,101613.56
2023-04-07T01:08:08.977Z,101620.81
2023-04-07T01:10:44.296Z,101604.66
2023-04-07T01:13:21.122Z,101613.63
2023-04-07T01:15:50.211Z,101617.00
2023-04-07T01:18:21.082Z,101609.44
2023-04-07T01:20:50.581Z,101621.38
2023-04-07T01:23:23.656Z,101616.94
2023-04-07T01:25:59.982Z,101622.53
2023-04-07T01:28:29.962Z,101624.19
2023-04-07T01:30:58.523Z,101621.66
2023-04-07T01:33:25.664Z,101623.09
2023-04-07T01:35:53.489Z,101620.22
2023-04-07T01:38:21.331Z,101615.50
2023-04-07T01:40:49.042Z,101625.81
2023-04-07T01:43:16.865Z,101621.06
2023-04-07T01:45:44.515Z,101623.63
2023-04-07T01:48:12.014Z,101623.88
2023-04-07T01:50:39.174Z,101624.97
2023-04-07T01:53:06.293Z,101633.31
2023-04-07T01:55:33.167Z,101633.59
2023-04-07T01:58:04.426Z,101622.47
2023-04-07T02:00:31.556Z,101631.38
2023-04-07T02:02:59.892Z,101637.22
2023-04-07T02:05:27.970Z,101633.00
2023-04-07T02:07:58.410Z,101637.47
2023-04-07T02:10:27.416Z,101634.94
2023-04-07T02:12:54.416Z,101636.63
2023-04-07T02:15:22.420Z,101632.50
2023-04-07T02:17:52.241Z,101637.47
2023-04-07T02:20:20.635Z,101630.50
2023-04-07T02:22:47.589Z,101637.72
2023-04-07T02:25:17.498Z,101646.94
2023-04-07T02:27:44.270Z,101646.38
2023-04-07T02:30:11.391Z,101647.78
2023-04-07T02:32:38.192Z,101650.00
2023-04-07T02:35:05.292Z,101633.28
2023-04-07T02:37:32.071Z,101646.09
2023-04-07T02:39:58.923Z,101646.63
2023-04-07T02:42:25.782Z,101643.84
2023-04-07T02:44:52.589Z,101645.78
2023-04-07T02:47:19.473Z,101645.78
2023-04-07T02:49:46.330Z,101654.97
2023-04-07T02:52:13.185Z,101648.81
2023-04-07T02:54:40.099Z,101650.50
2023-04-07T02:57:06.900Z,101653.28
2023-04-07T02:59:33.662Z,101652.44
2023-04-07T03:02:00.633Z,101650.78
2023-04-07T03:04:27.808Z,101652.44
2023-04-07T03:06:54.847Z,101644.94
2023-04-07T03:09:21.607Z,101656.34
2023-04-07T03:11:48.343Z,101658.63
2023-04-07T03:14:15.212Z,101654.13
2023-04-07T03:16:42.399Z,101654.66
2023-04-07T03:19:10.458Z,101662.75
2023-04-07T03:21:40.556Z,101656.59
2023-04-07T03:24:07.713Z,101666.38
2023-04-07T03:26:34.677Z,101661.94
2023-04-07T03:29:01.619Z,101663.03
2023-04-07T03:31:28.749Z,101667.75
2023-04-07T03:33:55.583Z,101668.59
2023-04-07T03:36:22.557Z,101651.59
2023-04-07T03:38:49.393Z,101663.03
2023-04-07T03:41:16.188Z,101675.03
2023-04-07T03:43:43.029Z,101664.38
2023-04-07T03:46:09.904Z,101660.25
2023-04-07T03:48:36.789Z,101667.16
2023-04-07T03:51:03.720Z,101667.16
2023-04-07T03:53:30.558Z,101670.78
2023-04-07T03:55:57.424Z,101668.28
2023-04-07T03:58:26.759Z,101672.47
2023-04-07T04:00:53.690Z,101657.47
2023-04-07T04:03:22.793Z,101658.22
2023-04-07T04:05:49.666Z,101657.94
2023-04-07T04:08:16.456Z,101669.69
2023-04-07T04:10:43.280Z,101665.50
2023-04-07T04:13:10.247Z,101667.16
2023-04-07T04:15:39.326Z,101663.53
2023-04-07T04:18:06.358Z,101676.03
2023-04-07T04:20:33.215Z,101665.75
2023-04-07T04:23:00.102Z,101663.22
2023-04-07T04:25:26.953Z,101671.06
2023-04-07T04:27:53.723Z,101673.00
2023-04-07T04:30:20.923Z,101666.84
2023-04-07T04:32:47.978Z,101667.94
2023-04-07T04:35:14.878Z,101680.78
2023-04-07T04:37:42.010Z,101675.78
2023-04-07T04:40:09.683Z,101684.72
2023-04-07T04:42:36.583Z,101685.25
2023-04-07T04:45:03.556Z,101696.97
2023-04-07T04:47:30.353Z,101691.66
2023-04-07T04:49:57.310Z,101699.19
2023-04-07T04:52:24.155Z,101695.28
2023-04-07T04:54:50.941Z,101700.28
2023-04-07T04:57:17.743Z,101697.72
2023-04-07T04:59:44.569Z,101703.31
2023-04-07T05:02:11.619Z,101699.69
2023-04-07T05:04:38.540Z,101708.06
2023-04-07T05:07:05.636Z,101705.84
2023-04-07T05:09:34.706Z,101700.78
2023-04-07T05:12:02.852Z,101701.38
2023-04-07T05:14:29.811Z,101703.84
2023-04-07T05:16:57.206Z,101702.97
2023-04-07T05:19:24.083Z,101705.78
2023-04-07T05:21:51.265Z,101705.53
2023-04-07T05:24:18.181Z,101709.16
2023-04-07T05:26:45.005Z,101715.22
2023-04-07T05:29:11.904Z,101719.44
2023-04-07T05:31:40.616Z,101722.00
2023-04-07T05:34:07.544Z,101718.06
2023-04-07T05:36:35.526Z,101716.41
2023-04-07T05:39:02.456Z,101724.19
2023-04-07T05:41:29.492Z,101732.28
2023-04-07T05:43:56.351Z,101737.50
2023-04-07T05:46:23.280Z,101735.00
2023-04-07T05:48:50.158Z,101732.78
2023-04-07T05:51:17.062Z,101738.94
2023-04-07T05:53:43.982Z,101740.28
2023-04-07T05:56:10.831Z,101750.63
2023-04-07T05:58:37.689Z,101737.78
2023-04-07T06:01:04.530Z,101745.28
2023-04-07T06:05:58.840Z,101749.41
2023-04-07T06:08:25.770Z,101756.19
2023-04-07T06:10:52.672Z,101752.56
2023-04-07T06:13:19.536Z,101763.69
2023-04-07T06:15:46.537Z,101762.00
2023-04-07T06:18:13.427Z,101764.78
2023-04-07T06:20:40.317Z,101774.84
2023-04-07T06:23:07.349Z,101768.44
2023-04-07T06:25:34.279Z,101771.69
2023-04-07T06:28:01.530Z,101771.47
2023-04-07T06:30:28.555Z,101773.66
2023-04-07T06:32:55.513Z,101764.72
2023-04-07T06:35:22.534Z,101772.81
2023-04-07T06:37:49.385Z,101779.81
2023-04-07T06:40:16.310Z,101783.44
2023-04-07T06:42:43.165Z,101786.22
2023-04-07T06:45:10.441Z,101785.38
2023-04-07T06:47:38.556Z,101783.69
2023-04-07T06:50:08.175Z,101782.28
2023-04-07T06:52:35.050Z,101789.25
2023-04-07T06:55:01.950Z,101789.00
2023-04-07T06:57:28.832Z,101790.38
2023-04-07T06:59:55.902Z,101796.19
2023-04-07T07:02:23.022Z,101801.53
2023-04-07T07:04:49.915Z,101797.63
2023-04-07T07:07:16.870Z,101800.41
2023-04-07T07:09:43.809Z,101801.53
2023-04-07T07:12:10.717Z,101801.53
2023-04-07T07:14:37.561Z,101806.50
2023-04-07T07:17:04.640Z,101802.34
2023-04-07T07:19:31.660Z,101798.13
2023-04-07T07:21:58.575Z,101797.03
2023-04-07T07:24:25.581Z,101803.72
2023-04-07T07:26:54.814Z,101808.44
2023-04-07T07:29:21.657Z,101809.53
2023-04-07T07:31:48.558Z,101810.13
2023-04-07T07:34:15.678Z,101814.59
2023-04-07T07:36:42.641Z,101822.13
2023-04-07T07:39:09.720Z,101825.16
2023-04-07T07:41:36.699Z,101836.91
2023-04-07T07:44:03.686Z,101824.91
2023-04-07T07:46:32.868Z,101825.75
2023-04-07T07:48:59.946Z,101842.09
2023-04-07T07:51:28.383Z,101832.41
2023-04-07T07:53:55.446Z,101833.25
2023-04-07T07:56:22.940Z,101829.88
2023-04-07T07:58:49.831Z,101834.34
2023-04-07T08:01:16.886Z,101829.63
2023-04-07T08:03:44.038Z,101831.56
2023-04-07T08:06:11.140Z,101834.34
2023-04-07T08:08:40.181Z,101828.53
2023-04-07T08:11:07.317Z,101836.03
2023-04-07T08:13:34.191Z,101833.84
2023-04-07T08:16:01.238Z,101838.81
2023-04-07T08:18:30.809Z,101847.19
2023-04-07T08:20:57.925Z,101845.50
2023-04-07T08:23:24.789Z,101837.97
2023-04-07T08:25:51.844Z,101840.00
2023-04-07T08:28:18.763Z,101841.63
2023-04-07T08:30:45.829Z,101846.09
2023-04-07T08:33:12.689Z,101842.72
2023-04-07T08:35:39.714Z,101834.97
2023-04-07T08:38:08.758Z,101841.84
2023-04-07T08:40:40.772Z,101846.91
2023-04-07T08:43:09.695Z,101847.19
2023-04-07T08:45:39.331Z,101847.19
2023-04-07T08:48:13.377Z,101855.88
2023-04-07T08:50:40.862Z,101857.81
2023-04-07T08:53:09.588Z,101859.75
2023-04-07T08:55:36.899Z,101859.25
2023-04-07T08:58:04.652Z,101860.34
2023-04-07T09:00:32.213Z,101865.94
2023-04-07T09:03:00.718Z,101866.16
2023-04-07T09:05:27.931Z,101864.22
2023-04-07T09:07:54.836Z,101869.56
2023-04-07T09:10:21.871Z,101863.13
2023-04-07T09:12:48.849Z,101865.94
2023-04-07T09:15:16.226Z,101866.50
2023-04-07T09:17:43.265Z,101876.88
2023-04-07T09:20:10.890Z,101868.53
2023-04-07T09:22:41.364Z,101859.91
2023-04-07T09:25:11.518Z,101869.13
2023-04-07T09:27:38.440Z,101868.03
2023-04-07T09:30:08.460Z,101862.47
2023-04-07T09:32:38.019Z,101872.47
2023-04-07T09:35:05.214Z,101861.94
2023-04-07T09:37:32.968Z,101860.00
2023-04-07T09:40:01.726Z,101865.91
2023-04-07T09:42:32.708Z,101868.69
2023-04-07T09:45:00.659Z,101870.97
2023-04-07T09:47:29.541Z,101863.44
2023-04-07T09:49:57.012Z,101865.38
2023-04-07T09:52:26.838Z,101875.44
2023-04-07T09:54:55.923Z,101872.16
2023-04-07T09:57:23.164Z,101861.34
2023-04-07T09:59:50.952Z,101862.19
2023-04-07T10:02:17.896Z,101862.19
2023-04-07T10:04:45.059Z,101855.25
2023-04-07T10:07:12.283Z,101861.66
2023-04-07T10:09:39.525Z,101863.94
2023-04-07T10:12:07.275Z,101860.06
2023-04-07T10:14:36.527Z,101866.16
2023-04-07T10:17:04.476Z,101859.22
2023-04-07T10:19:34.364Z,101866.72
2023-04-07T10:22:05.574Z,101864.78
2023-04-07T10:24:38.095Z,101861.16
2023-04-07T10:27:08.224Z,101853.63
2023-04-07T10:29:39.820Z,101853.91
2023-04-07T10:32:07.346Z,101857.50
2023-04-07T10:34:37.562Z,101854.72
2023-04-07T10:37:07.575Z,101853.72
2023-04-07T10:39:36.228Z,101853.97
2023-04-07T10:42:03.215Z,101853.97
2023-04-07T10:44:33.989Z,101865.47
2023-04-07T10:47:02.245Z,101855.41
2023-04-07T10:49:29.386Z,101856.34
2023-04-07T10:51:59.367Z,101849.38
2023-04-07T10:54:29.543Z,101858.06
2023-04-07T10:56:59.539Z,101860.00
2023-04-07T10:59:28.110Z,101858.34
2023-04-07T11:02:15.050Z,101861.47
2023-04-07T11:04:43.673Z,101860.94
2023-04-07T11:07:11.763Z,101863.56
2023-04-07T11:09:38.654Z,101859.31
2023-04-07T11:12:06.623Z,101862.09
2023-04-07T11:14:34.101Z,101857.38
2023-04-07T11:17:02.494Z,101850.53
2023-04-07T11:19:30.365Z,101852.25
2023-04-07T11:22:00.401Z,101850.13
2023-04-07T11:24:30.622Z,101855.53
2023-04-07T11:26:57.645Z,101847.75
2023-04-07T11:29:27.806Z,101852.50
2023-04-07T11:31:55.800Z,101859.06
2023-04-07T11:34:29.461Z,101851.22
2023-04-07T11:37:00.184Z,101855.66
2023-04-07T11:39:31.464Z,101863.50
2023-04-07T11:41:58.640Z,101854.09
2023-04-07T11:44:27.055Z,101851.06
2023-04-07T11:46:57.236Z,101852.56
2023-04-07T11:49:25.097Z,101855.91
2023-04-07T11:51:55.174Z,101853.47
2023-04-07T11:54:22.622Z,101857.44
2023-04-07T11:56:50.336Z,101856.28
2023-04-07T11:59:21.270Z,101854.41
2023-04-07T12:01:48.610Z,101858.91
2023-04-07T12:04:16.567Z,101851.13
2023-04-07T12:06:44.265Z,101862.53
2023-04-07T12:09:19.827Z,101861.16
2023-04-07T12:11:49.971Z,101856.44
2023-04-07T12:14:16.865Z,101857.59
2023-04-07T12:16:43.849Z,101853.44
2023-04-07T12:19:10.924Z,101857.09
2023-04-07T12:21:38.042Z,101857.97
2023-04-07T12:24:04.964Z,101858.50
2023-04-07T12:26:33.052Z,101857.09
2023-04-07T12:29:05.480Z,101863.50
2023-04-07T12:31:33.159Z,101854.72
2023-04-07T12:34:01.608Z,101861.69
2023-04-07T12:36:29.789Z,101861.09
2023-04-07T12:38:57.576Z,101864.41
2023-04-07T12:41:24.938Z,101860.78
2023-04-07T12:43:52.537Z,101866.06
2023-04-07T12:46:19.970Z,101854.94
2023-04-07T12:48:48.150Z,101864.47
2023-04-07T12:51:15.328Z,101864.22
2023-04-07T12:53:42.304Z,101855.59
2023-04-07T12:56:09.226Z,101849.50
2023-04-07T12:58:36.590Z,101850.00
2023-04-07T13:01:03.574Z,101850.34
2023-04-07T13:03:30.898Z,101850.06
2023-04-07T13:06:01.600Z,101845.00
2023-04-07T13:08:29.716Z,101845.00
2023-04-07T13:10:57.111Z,101840.53
2023-04-07T13:13:24.224Z,101844.75
2023-04-07T13:15:51.338Z,101842.22
2023-04-07T13:18:18.398Z,101842.78
2023-04-07T13:20:51.887Z,101848.72
2023-04-07T13:23:42.173Z,101847.56
2023-04-07T13:26:10.766Z,101849.56
2023-04-07T13:28:38.373Z,101855.38
2023-04-07T13:31:05.351Z,101842.53
2023-04-07T13:33:32.450Z,101842.53
2023-04-07T13:35:59.714Z,101835.00
2023-04-07T13:38:26.978Z,101845.91
2023-04-07T13:40:53.945Z,101841.44
2023-04-07T13:43:21.075Z,101837.53
2023-04-07T13:45:48.859Z,101840.91
2023-04-07T13:48:16.148Z,101831.97
2023-04-07T13:50:45.358Z,101824.44
2023-04-07T13:53:12.306Z,101835.06
2023-04-07T13:55:39.598Z,101832.28
2023-04-07T13:58:06.745Z,101825.84
2023-04-07T14:00:36.052Z,101824.75
2023-04-07T14:03:03.258Z,101828.63
2023-04-07T14:05:30.747Z,101818.88
2023-04-07T14:07:57.760Z,101819.72
2023-04-07T14:10:24.761Z,101829.22
2023-04-07T14:12:52.017Z,101829.47
2023-04-07T14:15:19.082Z,101820.25
2023-04-07T14:17:46.074Z,101822.75
2023-04-07T14:20:13.192Z,101824.44
2023-04-07T14:22:40.498Z,101823.59
2023-04-07T14:25:08.057Z,101810.47
2023-04-07T14:27:34.957Z,101819.66
2023-04-07T14:30:01.900Z,101827.78
2023-04-07T14:32:30.031Z,101821.91
2023-04-07T14:34:59.501Z,101814.63
2023-04-07T14:37:28.811Z,101818.50
2023-04-07T14:42:25.642Z,101814.31
2023-04-07T14:44:53.674Z,101817.09
2023-04-07T14:47:21.470Z,101804.00
2023-04-07T14:49:51.859Z,101804.00
2023-04-07T14:52:21.231Z,101799.25
2023-04-07T14:54:48.807Z,101809.56
2023-04-07T14:57:17.176Z,101804.00
2023-04-07T14:59:44.303Z,101800.91
2023-04-07T15:02:11.640Z,101811.25
2023-04-07T15:04:38.971Z,101801.75
2023-04-07T15:07:06.098Z,101798.97
2023-04-07T15:09:33.321Z,101800.91
2023-04-07T15:12:01.076Z,101799.81
2023-04-07T15:14:28.242Z,101802.91
2023-04-07T15:16:55.281Z,101798.97
2023-04-07T15:19:35.444Z,101802.91
2023-04-07T15:22:02.577Z,101803.44
2023-04-07T15:24:29.576Z,101802.59
2023-04-07T15:26:56.546Z,101801.75
2023-04-07T15:29:23.439Z,101796.53
2023-04-07T15:31:50.746Z,101797.03
2023-04-07T15:34:19.060Z,101796.78
2023-04-07T15:36:45.943Z,101796.53
2023-04-07T15:39:13.390Z,101791.50
2023-04-07T15:41:40.493Z,101790.94
2023-04-07T15:44:07.429Z,101794.28
2023-04-07T15:46:34.558Z,101799.63
2023-04-07T15:49:02.324Z,101802.66
2023-04-07T15:51:29.996Z,101804.59
2023-04-07T15:53:56.975Z,101806.00
2023-04-07T15:56:25.069Z,101803.75
2023-04-07T15:58:52.284Z,101801.81
2023-04-07T16:01:19.327Z,101808.00
2023-04-07T16:03:46.430Z,101807.41
2023-04-07T16:06:13.626Z,101814.94
2023-04-07T16:08:41.406Z,101808.50
2023-04-07T16:11:08.406Z,101807.69
2023-04-07T16:13:37.588Z,101804.91
2023-04-07T16:16:04.584Z,101804.91
2023-04-07T16:18:31.660Z,101807.94
2023-04-07T16:20:58.640Z,101816.00
2023-04-07T16:23:25.900Z,101807.34
2023-04-07T16:25:52.840Z,101821.59
2023-04-07T16:28:19.994Z,101820.44
2023-04-07T16:30:46.990Z,101817.41
2023-04-07T16:33:14.041Z,101814.84
2023-04-07T16:35:41.281Z,101822.94
2023-04-07T16:38:08.267Z,101820.44
2023-04-07T16:40:35.188Z,101820.44
2023-04-07T16:43:02.217Z,101823.16
2023-04-07T16:45:29.225Z,101817.88
2023-04-07T16:47:56.309Z,101831.00
2023-04-07T16:50:23.554Z,101818.13
2023-04-07T16:52:50.719Z,101824.25
2023-04-07T16:55:17.827Z,101825.09
2023-04-07T16:57:44.854Z,101824.25
2023-04-07T17:00:12.356Z,101824.00
2023-04-07T17:02:39.508Z,101833.19
2023-04-07T17:05:07.166Z,101825.09
2023-04-07T17:07:34.241Z,101830.69
2023-04-07T17:10:01.763Z,101829.31
2023-04-07T17:12:28.676Z,101837.38
2023-04-07T17:14:55.544Z,101829.53
2023-04-07T17:17:22.846Z,101842.34
2023-04-07T17:19:49.859Z,101842.09
2023-04-07T17:22:16.810Z,101837.63
2023-04-07T17:24:43.738Z,101845.13
2023-04-07T17:27:10.997Z,101854.34
2023-04-07T17:29:37.903Z,101849.91
2023-04-07T17:32:05.077Z,101858.28
2023-04-07T17:34:32.688Z,101858.00
2023-04-07T17:36:59.701Z,101860.47
2023-04-07T17:39:26.647Z,101859.88
2023-04-07T17:41:53.652Z,101860.22
2023-04-07T17:44:20.706Z,101868.00
2023-04-07T17:46:47.838Z,101871.38
2023-04-07T17:49:15.574Z,101867.69
2023-04-07T17:51:43.257Z,101868.84
2023-04-07T17:54:10.761Z,101873.25
2023-04-07T17:56:38.558Z,101878.31
2023-04-07T17:59:05.497Z,101881.38
2023-04-07T18:01:32.496Z,101870.72
2023-04-07T18:04:00.396Z,101885.25
2023-04-07T18:06:28.880Z,101881.88
2023-04-07T18:08:57.604Z,101880.19
2023-04-07T18:11:26.842Z,101890.53
2023-04-07T18:13:54.095Z,101883.25
2023-04-07T18:16:22.317Z,101884.94
2023-04-07T18:18:49.628Z,101889.69
2023-04-07T18:21:16.647Z,101889.09
2023-04-07T18:23:43.585Z,101890.78
2023-04-07T18:26:10.681Z,101899.72
2023-04-07T18:28:38.662Z,101898.31
2023-04-07T18:31:08.168Z,101907.53
2023-04-07T18:33:35.580Z,101910.06
2023-04-07T18:36:04.109Z,101914.44
2023-04-07T18:38:31.486Z,101914.19
2023-04-07T18:40:58.680Z,101912.50
2023-04-07T18:43:25.663Z,101917.22
2023-04-07T18:45:53.111Z,101922.25
2023-04-07T18:48:20.846Z,101925.88
2023-04-07T18:50:52.437Z,101926.72
2023-04-07T18:53:20.174Z,101938.72
2023-04-07T18:55:47.101Z,101939.56
2023-04-07T18:58:14.883Z,101939.56
2023-04-07T19:00:43.045Z,101947.91
2023-04-07T19:03:10.104Z,101946.81
2023-04-07T19:05:38.713Z,101951.84
2023-04-07T19:08:06.147Z,101956.28
2023-04-07T19:10:33.094Z,101959.09
2023-04-07T19:13:01.002Z,101970.25
2023-04-07T19:15:28.492Z,101978.03
2023-04-07T19:17:55.513Z,101974.41
2023-04-07T19:20:22.479Z,101967.97
2023-04-07T19:22:49.296Z,101980.84
2023-04-07T19:25:16.176Z,101976.09
2023-04-07T19:27:43.136Z,101980.59
2023-04-07T19:30:10.364Z,101990.91
2023-04-07T19:32:37.313Z,101988.09
2023-04-07T19:35:06.886Z,101989.44
2023-04-07T19:37:33.738Z,101997.56
2023-04-07T19:40:03.221Z,101988.59
2023-04-07T19:42:30.737Z,101994.19
2023-04-07T19:45:00.405Z,101998.41
2023-04-07T19:47:28.298Z,102003.66
2023-04-07T19:49:55.218Z,102008.38
2023-04-07T19:52:22.364Z,102005.34
2023-04-07T19:54:52.055Z,102012.84
2023-04-07T19:57:18.931Z,102010.06
2023-04-07T19:59:45.843Z,102018.78
2023-04-07T20:02:12.843Z,102022.06
2023-04-07T20:04:39.820Z,102020.13
2023-04-07T20:07:06.810Z,102028.16
2023-04-07T20:09:33.623Z,102027.91
2023-04-07T20:12:02.016Z,102023.41
2023-04-07T20:14:28.873Z,102033.47
2023-04-07T20:16:56.092Z,102029.59
2023-04-07T20:19:23.242Z,102034.94
2023-04-07T20:21:50.099Z,102029.00
2023-04-07T20:24:17.007Z,102034.94
2023-04-07T20:26:44.070Z,102031.19
2023-04-07T20:29:11.170Z,102039.56
2023-04-07T20:31:38.056Z,102038.22
2023-04-07T20:34:04.915Z,102041.25
2023-04-07T20:36:31.710Z,102050.22
2023-04-07T20:38:58.951Z,102044.88
2023-04-07T20:41:25.897Z,102040.41
2023-04-07T20:43:52.980Z,102045.72
2023-04-07T20:46:20.185Z,102052.16
2023-04-07T20:48:47.372Z,102049.63
2023-04-07T20:51:14.585Z,102046.59
2023-04-07T20:53:41.508Z,102044.03
2023-04-07T20:56:08.705Z,102057.41
2023-04-07T20:58:35.693Z,102045.97
2023-04-07T21:01:02.627Z,102052.66
2023-04-07T21:03:31.132Z,102049.81
2023-04-07T21:05:58.116Z,102055.09
2023-04-07T21:08:25.032Z,102063.81
2023-04-07T21:10:52.901Z,102056.81
2023-04-07T21:13:20.297Z,102063.81
2023-04-07T21:15:47.255Z,102068.06
2023-04-07T21:18:14.173Z,102068.06
2023-04-07T21:20:41.066Z,102056.03
2023-04-07T21:23:08.854Z,102065.25
2023-04-07T21:25:38.925Z,102073.16
2023-04-07T21:28:08.082Z,102072.91
2023-04-07T21:30:34.961Z,102066.59
2023-04-07T21:33:01.933Z,102070.22
2023-04-07T21:35:29.105Z,102070.00
2023-04-07T21:37:56.103Z,102073.31
2023-04-07T21:40:23.344Z,102072.44
2023-04-07T21:42:52.184Z,102077.75
2023-04-07T21:45:19.824Z,102077.19
2023-04-07T21:47:47.100Z,102078.34
2023-04-07T21:50:14.093Z,102075.25
2023-04-07T21:52:42.718Z,102074.72
2023-04-07T21:55:11.141Z,102073.41
2023-04-07T21:57:38.096Z,102075.81
2023-04-07T22:00:05.558Z,102072.53
2023-04-07T22:02:32.525Z,102077.19
2023-04-07T22:04:59.821Z,102072.53
2023-04-07T22:07:26.723Z,102071.44
2023-04-07T22:09:53.594Z,102080.91
2023-04-07T22:12:20.601Z,102075.31
2023-04-07T22:14:47.478Z,102078.34
2023-04-07T22:17:16.810Z,102075.56
2023-04-07T22:19:43.748Z,102080.31
2023-04-07T22:22:10.777Z,102084.78
2023-04-07T22:24:37.675Z,102082.25
2023-04-07T22:27:04.774Z,102083.44
2023-04-07T22:29:31.694Z,102082.00
2023-04-07T22:31:58.652Z,102086.72
2023-04-07T22:34:25.614Z,102094.63
2023-04-07T22:36:52.414Z,102099.09
2023-04-07T22:39:19.277Z,102095.47
2023-04-07T22:41:46.150Z,102100.44
2023-04-07T22:44:13.031Z,102107.09
2023-04-07T22:46:39.926Z,102109.41
2023-04-07T22:49:06.807Z,102121.91
2023-04-07T22:51:35.843Z,102118.63
2023-04-07T22:54:02.720Z,102116.94
2023-04-07T22:56:29.520Z,102110.25
2023-04-07T22:58:57.759Z,102120.84
2023-04-07T23:01:24.625Z,102116.09
2023-04-07T23:03:51.615Z,102116.94
2023-04-07T23:06:18.468Z,102122.28
2023-04-07T23:08:45.278Z,102127.25
2023-04-07T23:11:12.208Z,102123.34
2023-04-07T23:13:41.420Z,102127.25
2023-04-07T23:16:12.316Z,102132.00
2023-04-07T23:18:39.786Z,102122.28
2023-04-07T23:21:07.146Z,102128.94
2023-04-07T23:23:35.240Z,102133.44
2023-04-07T23:26:04.271Z,102131.72
2023-04-07T23:28:31.083Z,102133.44
2023-04-07T23:30:58.029Z,102133.66
2023-04-07T23:33:24.834Z,102134.53
2023-04-07T23:35:51.861Z,102133.19
2023-04-07T23:38:18.700Z,102142.91
2023-04-07T23:40:45.508Z,102138.41
2023-04-07T23:43:12.453Z,102137.59
2023-04-07T23:45:39.346Z,102137.06
2023-04-07T23:48:06.826Z,102145.97
2023-04-07T23:50:33.685Z,102146.53
2023-04-07T23:53:00.671Z,102144.84
2023-04-07T23:55:27.629Z,102152.97
2023-04-07T23:57:54.482Z,102156.00
